createdAt,value
2018-02-11T00:00:54.314Z,36.90
2018-02-11T00:03:22.711Z,35.13
2018-02-11T00:05:51.210Z,45.23
2018-02-11T00:08:19.562Z,25.53
2018-02-11T00:10:48.648Z,24.00
2018-02-11T00:13:16.982Z,24.70
2018-02-11T00:15:45.350Z,21.73
2018-02-11T00:18:13.745Z,20.83
2018-02-11T00:20:42.105Z,20.13
2018-02-11T00:23:10.448Z,20.23
2018-02-11T00:25:39.301Z,18.63
2018-02-11T00:28:07.643Z,16.53
2018-02-11T00:30:35.970Z,13.90
2018-02-11T00:33:04.362Z,15.70
2018-02-11T00:35:33.104Z,18.90
2018-02-11T00:38:07.270Z,16.30
2018-02-11T00:40:35.818Z,19.20
2018-02-11T00:43:04.154Z,15.87
2018-02-11T00:45:32.550Z,16.27
2018-02-11T00:48:01.134Z,19.00
2018-02-11T00:50:29.487Z,16.53
2018-02-11T00:52:57.866Z,19.03
2018-02-11T00:55:26.294Z,16.67
2018-02-11T00:57:54.909Z,18.73
2018-02-11T01:00:23.694Z,17.30
2018-02-11T01:02:52.555Z,19.37
2018-02-11T01:05:20.890Z,22.40
2018-02-11T01:07:49.258Z,19.63
2018-02-11T01:10:17.598Z,21.13
2018-02-11T01:12:46.000Z,29.20
2018-02-11T01:15:14.774Z,23.63
2018-02-11T01:17:43.107Z,18.47
2018-02-11T01:20:11.483Z,22.90
2018-02-11T01:22:39.951Z,20.90
2018-02-11T01:25:08.453Z,20.83
2018-02-11T01:27:36.870Z,22.10
2018-02-11T01:30:05.253Z,25.17
2018-02-11T01:32:33.626Z,20.17
2018-02-11T01:35:02.377Z,20.37
2018-02-11T01:37:30.767Z,22.90
2018-02-11T01:39:59.125Z,18.33
2018-02-11T01:42:27.523Z,21.90
2018-02-11T01:44:56.016Z,24.90
2018-02-11T01:47:24.410Z,21.00
2018-02-11T01:52:52.590Z,18.57
2018-02-11T01:55:21.013Z,20.77
2018-02-11T01:57:49.583Z,19.73
2018-02-11T02:00:18.313Z,20.90
2018-02-11T02:02:46.731Z,19.33
2018-02-11T02:05:15.109Z,18.93
2018-02-11T02:07:43.449Z,18.63
2018-02-11T02:10:11.851Z,21.10
2018-02-11T02:12:40.186Z,18.43
2018-02-11T02:15:08.532Z,18.20
2018-02-11T02:17:37.332Z,23.07
2018-02-11T02:20:06.089Z,18.27
2018-02-11T02:22:34.467Z,18.37
2018-02-11T02:25:02.853Z,18.03
2018-02-11T02:27:31.186Z,18.83
2018-02-11T02:30:00.470Z,20.60
2018-02-11T02:32:28.908Z,20.70
2018-02-11T02:34:57.509Z,18.93
2018-02-11T02:37:26.234Z,19.07
2018-02-11T02:39:54.591Z,19.60
2018-02-11T02:42:23.347Z,18.83
2018-02-11T02:44:51.907Z,17.87
2018-02-11T02:47:20.705Z,19.90
2018-02-11T02:49:49.058Z,18.73
2018-02-11T02:52:17.425Z,18.97
2018-02-11T02:54:45.867Z,17.37
2018-02-11T02:57:14.249Z,17.97
2018-02-11T02:59:43.027Z,18.90
2018-02-11T03:02:11.430Z,19.37
2018-02-11T03:04:40.098Z,18.00
2018-02-11T03:07:08.858Z,19.07
2018-02-11T03:09:37.235Z,17.63
2018-02-11T03:12:05.569Z,17.97
2018-02-11T03:14:33.926Z,18.50
2018-02-11T03:17:02.705Z,19.13
2018-02-11T03:19:31.799Z,19.30
2018-02-11T03:22:00.529Z,18.33
2018-02-11T03:24:28.940Z,18.30
2018-02-11T03:26:57.697Z,19.37
2018-02-11T03:29:26.053Z,18.87
2018-02-11T03:31:54.481Z,20.50
2018-02-11T03:34:22.814Z,19.17
2018-02-11T03:36:51.268Z,19.70
2018-02-11T03:39:19.722Z,18.57
2018-02-11T03:41:48.073Z,18.00
2018-02-11T03:44:16.410Z,18.80
2018-02-11T03:46:45.494Z,19.60
2018-02-11T03:49:13.832Z,19.90
2018-02-11T03:51:42.641Z,16.43
2018-02-11T03:54:11.466Z,18.43
2018-02-11T03:56:39.878Z,20.43
2018-02-11T03:59:08.217Z,17.73
2018-02-11T04:01:37.305Z,18.00
2018-02-11T04:04:05.665Z,21.07
2018-02-11T04:06:34.021Z,16.47
2018-02-11T04:09:02.406Z,19.40
2018-02-11T04:11:30.738Z,18.30
2018-02-11T04:13:59.086Z,19.63
2018-02-11T04:16:27.521Z,16.63
2018-02-11T04:18:55.883Z,19.20
2018-02-11T04:21:24.278Z,20.43
2018-02-11T04:23:52.662Z,21.03
2018-02-11T04:26:21.045Z,18.83
2018-02-11T04:28:49.405Z,18.73
2018-02-11T04:31:17.791Z,16.47
2018-02-11T04:33:46.122Z,19.93
2018-02-11T04:36:14.880Z,18.17
2018-02-11T04:38:43.231Z,19.93
2018-02-11T04:41:11.686Z,18.60
2018-02-11T04:43:40.020Z,20.07
2018-02-11T04:46:08.406Z,17.87
2018-02-11T04:48:36.763Z,20.00
2018-02-11T04:51:06.074Z,16.50
2018-02-11T04:53:34.458Z,17.30
2018-02-11T04:56:02.822Z,18.50
2018-02-11T04:58:31.187Z,19.70
2018-02-11T05:00:59.558Z,19.10
2018-02-11T05:03:27.902Z,16.90
2018-02-11T05:05:56.652Z,18.30
2018-02-11T05:08:25.050Z,18.70
2018-02-11T05:10:53.808Z,18.03
2018-02-11T05:13:22.168Z,18.57
2018-02-11T05:15:50.550Z,17.47
2018-02-11T05:18:18.882Z,18.23
2018-02-11T05:20:47.622Z,16.07
2018-02-11T05:23:15.966Z,17.67
2018-02-11T05:25:44.330Z,17.17
2018-02-11T05:28:13.115Z,17.83
2018-02-11T05:30:41.859Z,18.90
2018-02-11T05:33:10.289Z,18.17
2018-02-11T05:35:38.704Z,18.60
2018-02-11T05:38:07.062Z,17.37
2018-02-11T05:40:35.399Z,17.80
2018-02-11T05:43:03.799Z,18.40
2018-02-11T05:45:32.137Z,18.00
2018-02-11T05:48:00.496Z,17.23
2018-02-11T05:50:28.902Z,17.20
2018-02-11T05:52:57.238Z,17.93
2018-02-11T05:55:25.603Z,16.30
2018-02-11T05:57:53.990Z,17.50
2018-02-11T06:00:22.324Z,18.60
2018-02-11T06:02:50.688Z,19.13
2018-02-11T06:05:19.102Z,17.93
2018-02-11T06:07:47.777Z,18.73
2018-02-11T06:10:16.552Z,17.83
2018-02-11T06:12:44.898Z,16.97
2018-02-11T06:15:13.828Z,19.23
2018-02-11T06:17:42.193Z,19.77
2018-02-11T06:20:10.528Z,17.57
2018-02-11T06:22:38.883Z,17.13
2018-02-11T06:25:07.269Z,19.70
2018-02-11T06:27:35.660Z,18.10
2018-02-11T06:30:04.309Z,19.07
2018-02-11T06:32:33.080Z,18.57
2018-02-11T06:35:01.434Z,19.70
2018-02-11T06:37:29.770Z,17.40
2018-02-11T06:39:58.138Z,19.83
2018-02-11T06:42:26.867Z,20.57
2018-02-11T06:44:55.218Z,19.57
2018-02-11T06:47:23.701Z,17.27
2018-02-11T06:49:52.058Z,19.43
2018-02-11T06:52:20.916Z,18.60
2018-02-11T06:54:49.291Z,21.00
2018-02-11T06:57:17.634Z,19.00
2018-02-11T06:59:45.985Z,19.47
2018-02-11T07:02:14.738Z,20.33
2018-02-11T07:04:43.370Z,19.43
2018-02-11T07:07:11.744Z,19.30
2018-02-11T07:09:40.118Z,19.70
2018-02-11T07:12:08.502Z,19.23
2018-02-11T07:14:37.246Z,15.30
2018-02-11T07:17:05.603Z,17.60
2018-02-11T07:19:34.229Z,20.13
2018-02-11T07:22:02.560Z,17.93
2018-02-11T07:24:30.942Z,16.90
2018-02-11T07:26:59.274Z,16.40
2018-02-11T07:29:27.629Z,14.77
2018-02-11T07:31:56.099Z,15.60
2018-02-11T07:34:24.434Z,17.00
2018-02-11T07:36:52.774Z,16.60
2018-02-11T07:39:21.163Z,14.53
2018-02-11T07:41:49.915Z,15.07
2018-02-11T07:44:18.526Z,13.00
2018-02-11T07:46:46.924Z,13.27
2018-02-11T07:49:15.709Z,16.37
2018-02-11T07:51:44.462Z,14.23
2018-02-11T07:54:12.854Z,14.83
2018-02-11T07:56:41.214Z,14.50
2018-02-11T07:59:09.826Z,13.53
2018-02-11T08:01:38.686Z,13.80
2018-02-11T08:04:07.033Z,14.17
2018-02-11T08:06:35.444Z,15.10
2018-02-11T08:09:03.925Z,13.77
2018-02-11T08:11:33.007Z,13.17
2018-02-11T08:14:01.493Z,13.97
2018-02-11T08:16:30.302Z,14.40
2018-02-11T08:18:58.655Z,13.30
2018-02-11T08:21:27.279Z,12.60
2018-02-11T08:23:56.080Z,12.97
2018-02-11T08:26:24.913Z,13.00
2018-02-11T08:28:53.321Z,11.90
2018-02-11T08:31:22.632Z,12.47
2018-02-11T08:33:51.973Z,11.37
2018-02-11T08:36:20.426Z,11.40
2018-02-11T08:38:49.214Z,11.77
2018-02-11T08:41:18.009Z,11.97
2018-02-11T08:43:46.779Z,11.43
2018-02-11T08:46:15.502Z,11.03
2018-02-11T08:48:43.920Z,11.77
2018-02-11T08:51:12.315Z,11.17
2018-02-11T08:53:40.651Z,12.13
2018-02-11T08:56:08.984Z,10.33
2018-02-11T08:58:37.786Z,10.70
2018-02-11T09:01:06.152Z,10.80
2018-02-11T09:03:35.134Z,9.43
2018-02-11T09:06:03.509Z,11.30
2018-02-11T09:08:31.869Z,10.40
2018-02-11T09:11:00.218Z,9.73
2018-02-11T09:13:28.648Z,9.57
2018-02-11T09:15:57.005Z,8.83
2018-02-11T09:18:25.334Z,9.13
2018-02-11T09:20:53.738Z,9.53
2018-02-11T09:23:22.795Z,9.07
2018-02-11T09:25:51.530Z,9.87
2018-02-11T09:28:19.920Z,10.00
2018-02-11T09:30:48.525Z,9.20
2018-02-11T09:33:17.293Z,9.17
2018-02-11T09:35:46.009Z,9.00
2018-02-11T09:38:14.750Z,9.23
2018-02-11T09:40:43.368Z,8.30
2018-02-11T09:43:11.728Z,7.40
2018-02-11T09:45:40.339Z,7.97
2018-02-11T09:48:08.707Z,7.60
2018-02-11T09:50:37.068Z,7.93
2018-02-11T09:53:05.402Z,8.23
2018-02-11T09:55:33.792Z,6.87
2018-02-11T09:58:02.161Z,7.07
2018-02-11T10:00:30.491Z,8.47
2018-02-11T10:02:58.894Z,6.43
2018-02-11T10:05:27.883Z,13.33
2018-02-11T10:07:56.783Z,8.03
2018-02-11T10:10:25.163Z,8.53
2018-02-11T10:12:53.890Z,7.10
2018-02-11T10:15:22.298Z,8.10
2018-02-11T10:17:50.678Z,7.80
2018-02-11T10:20:19.037Z,6.03
2018-02-11T10:22:47.509Z,6.57
2018-02-11T10:25:15.850Z,5.83
2018-02-11T10:27:44.198Z,5.13
2018-02-11T10:30:12.686Z,5.70
2018-02-11T10:32:41.780Z,5.57
2018-02-11T10:35:10.137Z,6.70
2018-02-11T10:37:38.518Z,6.00
2018-02-11T10:40:06.894Z,6.27
2018-02-11T10:42:35.253Z,5.83
2018-02-11T10:45:03.591Z,5.20
2018-02-11T10:47:32.215Z,31.83
2018-02-11T10:50:00.659Z,23.93
2018-02-11T10:52:29.050Z,14.93
2018-02-11T10:54:57.435Z,17.13
2018-02-11T10:57:25.775Z,17.93
2018-02-11T10:59:54.547Z,16.10
2018-02-11T11:02:22.903Z,13.77
2018-02-11T11:04:51.234Z,12.87
2018-02-11T11:07:19.631Z,11.70
2018-02-11T11:09:48.351Z,11.23
2018-02-11T11:12:16.701Z,10.60
2018-02-11T11:14:45.108Z,12.10
2018-02-11T11:17:13.445Z,9.87
2018-02-11T11:19:41.885Z,10.90
2018-02-11T11:22:10.348Z,9.77
2018-02-11T11:24:38.853Z,11.77
2018-02-11T11:27:07.205Z,12.10
2018-02-11T11:29:35.543Z,9.57
2018-02-11T11:32:03.897Z,8.40
2018-02-11T11:34:32.894Z,9.57
2018-02-11T11:37:01.246Z,10.30
2018-02-11T11:39:29.598Z,9.43
2018-02-11T11:41:57.995Z,8.50
2018-02-11T11:44:26.352Z,9.50
2018-02-11T11:46:54.849Z,9.40
2018-02-11T11:49:23.202Z,8.97
2018-02-11T11:51:51.548Z,6.90
2018-02-11T11:54:20.505Z,8.07
2018-02-11T11:56:49.139Z,8.87
2018-02-11T11:59:17.710Z,7.03
2018-02-11T12:01:46.142Z,6.13
2018-02-11T12:04:14.593Z,8.10
2018-02-11T12:06:43.027Z,6.03
2018-02-11T12:09:11.415Z,6.30
2018-02-11T12:11:39.969Z,6.70
2018-02-11T12:14:08.877Z,5.30
2018-02-11T12:16:37.400Z,5.60
2018-02-11T12:19:07.205Z,6.20
2018-02-11T12:21:35.909Z,5.63
2018-02-11T12:24:04.810Z,6.03
2018-02-11T12:26:33.625Z,6.70
2018-02-11T12:29:02.107Z,7.10
2018-02-11T12:31:30.942Z,5.60
2018-02-11T12:33:59.381Z,7.57
2018-02-11T12:36:27.744Z,6.50
2018-02-11T12:38:56.452Z,5.20
2018-02-11T12:41:24.807Z,5.70
2018-02-11T12:43:53.157Z,5.23
2018-02-11T12:46:21.569Z,6.57
2018-02-11T12:48:49.931Z,6.10
2018-02-11T12:51:18.300Z,5.90
2018-02-11T12:53:46.732Z,6.93
2018-02-11T12:56:15.454Z,18.20
2018-02-11T12:58:43.848Z,19.93
2018-02-11T13:01:12.192Z,17.07
2018-02-11T13:03:41.435Z,17.00
2018-02-11T13:06:10.138Z,18.43
2018-02-11T13:08:38.914Z,16.27
2018-02-11T13:11:07.340Z,17.80
2018-02-11T13:13:35.931Z,14.90
2018-02-11T13:16:04.838Z,14.10
2018-02-11T13:18:34.020Z,14.47
2018-02-11T13:21:02.418Z,14.17
2018-02-11T13:23:30.831Z,14.10
2018-02-11T13:25:59.607Z,11.97
2018-02-11T13:28:28.034Z,13.90
2018-02-11T13:30:56.385Z,11.80
2018-02-11T13:33:24.766Z,10.43
2018-02-11T13:35:53.175Z,13.40
2018-02-11T13:38:21.546Z,10.83
2018-02-11T13:40:49.915Z,8.20
2018-02-11T13:43:18.393Z,9.00
2018-02-11T13:45:47.075Z,11.57
2018-02-11T13:48:15.842Z,8.13
2018-02-11T13:50:44.250Z,8.10
2018-02-11T13:53:12.682Z,10.43
2018-02-11T13:55:41.084Z,9.23
2018-02-11T13:58:09.566Z,7.57
2018-02-11T14:00:38.000Z,7.07
2018-02-11T14:03:06.387Z,7.93
2018-02-11T14:05:34.926Z,6.30
2018-02-11T14:08:03.710Z,7.90
2018-02-11T14:10:32.469Z,7.13
2018-02-11T14:13:01.078Z,5.90
2018-02-11T14:15:29.556Z,8.53
2018-02-11T14:17:58.534Z,6.70
2018-02-11T14:20:26.875Z,7.10
2018-02-11T14:22:55.324Z,7.27
2018-02-11T14:25:24.146Z,7.57
2018-02-11T14:27:52.494Z,6.30
2018-02-11T14:30:21.279Z,6.60
2018-02-11T14:32:49.630Z,5.23
2018-02-11T14:35:19.079Z,8.23
2018-02-11T14:37:47.661Z,6.83
2018-02-11T14:40:16.050Z,7.10
2018-02-11T14:42:44.413Z,4.97
2018-02-11T14:45:12.823Z,4.80
2018-02-11T14:47:41.170Z,4.90
2018-02-11T14:50:09.568Z,5.97
2018-02-11T14:52:38.537Z,5.17
2018-02-11T14:55:07.016Z,5.33
2018-02-11T14:57:35.798Z,4.97
2018-02-11T15:00:04.171Z,5.77
2018-02-11T15:02:32.931Z,5.30
2018-02-11T15:05:02.215Z,12.30
2018-02-11T15:07:30.636Z,6.43
2018-02-11T15:09:59.087Z,6.70
2018-02-11T15:12:27.475Z,6.07
2018-02-11T15:14:56.562Z,5.40
2018-02-11T15:17:25.121Z,6.00
2018-02-11T15:19:58.773Z,5.17
2018-02-11T15:22:27.133Z,5.07
2018-02-11T15:24:55.554Z,9.23
2018-02-11T15:27:24.018Z,5.70
2018-02-11T15:29:52.809Z,7.53
2018-02-11T15:32:21.630Z,6.23
2018-02-11T15:34:50.111Z,6.83
2018-02-11T15:37:18.666Z,4.93
2018-02-11T15:39:47.171Z,4.53
2018-02-11T15:42:15.556Z,6.00
2018-02-11T15:44:43.950Z,5.90
2018-02-11T15:47:12.535Z,6.90
2018-02-11T15:49:41.003Z,5.20
2018-02-11T15:52:09.479Z,4.90
2018-02-11T15:54:38.007Z,5.10
2018-02-11T15:57:06.990Z,4.63
2018-02-11T15:59:35.529Z,7.33
2018-02-11T16:02:04.715Z,8.10
2018-02-11T16:04:33.114Z,6.40
2018-02-11T16:07:01.614Z,5.30
2018-02-11T16:09:30.201Z,9.43
2018-02-11T16:11:58.578Z,20.83
2018-02-11T16:14:27.000Z,9.30
2018-02-11T16:16:56.622Z,8.77
2018-02-11T16:19:25.047Z,7.33
2018-02-11T16:21:53.453Z,9.63
2018-02-11T16:24:22.258Z,8.93
2018-02-11T16:26:51.111Z,8.40
2018-02-11T16:29:20.872Z,6.60
2018-02-11T16:31:49.343Z,7.50
2018-02-11T16:34:17.855Z,8.60
2018-02-11T16:36:46.347Z,7.37
2018-02-11T16:39:14.763Z,6.90
2018-02-11T16:41:43.221Z,10.37
2018-02-11T16:44:11.583Z,8.47
2018-02-11T16:46:40.314Z,12.13
2018-02-11T16:49:09.680Z,6.17
2018-02-11T16:51:38.461Z,4.93
2018-02-11T16:54:06.881Z,4.90
2018-02-11T16:56:35.598Z,6.27
2018-02-11T16:59:04.526Z,6.13
2018-02-11T17:01:32.959Z,5.07
2018-02-11T17:04:01.527Z,6.07
2018-02-11T17:06:30.465Z,7.00
2018-02-11T17:08:58.882Z,6.30
2018-02-11T17:11:27.238Z,6.63
2018-02-11T17:13:55.968Z,5.33
2018-02-11T17:16:24.511Z,6.80
2018-02-11T17:18:53.049Z,5.27
2018-02-11T17:21:21.759Z,5.97
2018-02-11T17:23:50.287Z,6.50
2018-02-11T17:26:18.976Z,5.73
2018-02-11T17:28:47.408Z,5.10
2018-02-11T17:31:15.809Z,5.80
2018-02-11T17:33:44.212Z,4.33
2018-02-11T17:36:12.622Z,6.53
2018-02-11T17:38:41.394Z,5.83
2018-02-11T17:41:10.082Z,4.80
2018-02-11T17:43:38.595Z,6.20
2018-02-11T17:46:07.027Z,5.20
2018-02-11T17:48:35.918Z,4.00
2018-02-11T17:51:05.030Z,6.10
2018-02-11T17:53:33.468Z,4.10
2018-02-11T17:56:01.839Z,5.00
2018-02-11T17:58:30.189Z,4.53
2018-02-11T18:00:58.547Z,5.10
2018-02-11T18:03:26.975Z,4.20
2018-02-11T18:05:56.153Z,4.73
2018-02-11T18:08:24.506Z,4.93
2018-02-11T18:10:52.898Z,4.50
2018-02-11T18:13:21.310Z,7.00
2018-02-11T18:15:49.641Z,4.70
2018-02-11T18:18:18.017Z,5.13
2018-02-11T18:20:46.367Z,4.10
2018-02-11T18:23:14.783Z,5.00
2018-02-11T18:25:43.174Z,4.17
2018-02-11T18:28:11.529Z,4.13
2018-02-11T18:30:39.878Z,5.60
2018-02-11T18:33:08.715Z,51.90
2018-02-11T18:35:37.103Z,31.57
2018-02-11T18:38:05.446Z,30.17
2018-02-11T18:40:34.355Z,34.73
2018-02-11T18:43:02.710Z,30.90
2018-02-11T18:45:31.490Z,29.37
2018-02-11T18:48:00.355Z,32.70
2018-02-11T18:50:28.689Z,22.77
2018-02-11T18:52:57.551Z,24.10
2018-02-11T18:55:25.985Z,23.67
2018-02-11T18:57:54.372Z,22.90
2018-02-11T19:00:22.726Z,19.97
2018-02-11T19:02:51.227Z,29.13
2018-02-11T19:05:19.617Z,21.60
2018-02-11T19:07:47.994Z,17.87
2018-02-11T19:10:16.806Z,20.73
2018-02-11T19:12:45.155Z,18.83
2018-02-11T19:15:13.919Z,24.60
2018-02-11T19:17:42.557Z,15.87
2018-02-11T19:20:11.178Z,19.40
2018-02-11T19:22:39.589Z,13.33
2018-02-11T19:25:07.976Z,23.33
2018-02-11T19:27:36.334Z,16.07
2018-02-11T19:30:04.670Z,13.63
2018-02-11T19:32:33.046Z,14.93
2018-02-11T19:35:01.803Z,54.77
2018-02-11T19:37:30.559Z,52.50
2018-02-11T19:39:58.954Z,42.10
2018-02-11T19:42:27.320Z,31.73
2018-02-11T19:44:55.826Z,28.10
2018-02-11T19:47:24.220Z,37.83
2018-02-11T19:49:52.987Z,31.03
2018-02-11T19:52:21.409Z,37.23
2018-02-11T19:54:49.769Z,24.87
2018-02-11T19:57:18.507Z,24.17
2018-02-11T19:59:46.873Z,25.13
2018-02-11T20:02:15.237Z,17.67
2018-02-11T20:04:43.703Z,12.40
2018-02-11T20:07:12.449Z,16.77
2018-02-11T20:09:40.806Z,14.10
2018-02-11T20:12:09.146Z,11.57
2018-02-11T20:14:37.538Z,9.77
2018-02-11T20:17:05.874Z,12.00
2018-02-11T20:19:34.230Z,9.97
2018-02-11T20:22:02.600Z,9.53
2018-02-11T20:24:31.161Z,7.80
2018-02-11T20:26:59.505Z,7.60
2018-02-11T20:29:27.890Z,8.87
2018-02-11T20:31:56.615Z,7.57
2018-02-11T20:34:24.983Z,7.87
2018-02-11T20:36:53.343Z,6.33
2018-02-11T20:39:22.067Z,5.80
2018-02-11T20:41:50.426Z,6.40
2018-02-11T20:44:18.822Z,6.47
2018-02-11T20:46:47.194Z,6.50
2018-02-11T20:49:15.555Z,6.10
2018-02-11T20:51:43.892Z,5.07
2018-02-11T20:54:12.276Z,6.17
2018-02-11T20:56:41.064Z,6.13
2018-02-11T20:59:09.850Z,4.80
2018-02-11T21:01:38.198Z,5.97
2018-02-11T21:04:06.556Z,6.43
2018-02-11T21:06:34.913Z,5.37
2018-02-11T21:09:03.513Z,6.60
2018-02-11T21:11:31.964Z,5.00
2018-02-11T21:14:00.761Z,5.47
2018-02-11T21:16:29.748Z,7.50
2018-02-11T21:21:27.935Z,4.60
2018-02-11T21:23:56.792Z,4.40
2018-02-11T21:26:28.801Z,6.10
2018-02-11T21:28:57.692Z,5.83
2018-02-11T21:31:26.410Z,4.97
2018-02-11T21:33:54.736Z,6.27
2018-02-11T21:36:23.475Z,6.00
2018-02-11T21:38:51.910Z,5.63
2018-02-11T21:41:20.999Z,11.90
2018-02-11T21:43:49.722Z,13.37
2018-02-11T21:46:18.087Z,13.70
2018-02-11T21:48:46.465Z,10.70
2018-02-11T21:51:14.833Z,17.17
2018-02-11T21:53:43.569Z,18.87
2018-02-11T21:56:11.956Z,13.40
2018-02-11T21:58:40.285Z,9.50
2018-02-11T22:01:08.704Z,11.10
2018-02-11T22:03:37.089Z,12.73
2018-02-11T22:06:05.443Z,12.50
2018-02-11T22:08:34.187Z,11.70
2018-02-11T22:11:02.924Z,11.37
2018-02-11T22:13:31.263Z,11.10
2018-02-11T22:16:00.014Z,9.67
2018-02-11T22:18:28.356Z,9.20
2018-02-11T22:20:56.683Z,10.17
2018-02-11T22:23:25.074Z,11.00
2018-02-11T22:25:53.816Z,12.00
2018-02-11T22:28:22.148Z,8.43
2018-02-11T22:30:50.903Z,7.20
2018-02-11T22:33:19.257Z,6.77
2018-02-11T22:35:47.589Z,7.87
2018-02-11T22:38:15.979Z,6.73
2018-02-11T22:40:44.319Z,6.20
2018-02-11T22:43:13.086Z,6.27
2018-02-11T22:45:41.477Z,6.47
2018-02-11T22:48:09.832Z,5.83
2018-02-11T22:50:38.187Z,4.60
2018-02-11T22:53:06.586Z,6.20
2018-02-11T22:55:34.911Z,4.50
2018-02-11T22:58:03.250Z,4.20
2018-02-11T23:00:32.327Z,3.70
2018-02-11T23:03:00.675Z,4.77
2018-02-11T23:05:29.106Z,4.97
2018-02-11T23:07:57.931Z,3.70
2018-02-11T23:10:26.698Z,3.87
2018-02-11T23:12:55.062Z,3.90
2018-02-11T23:15:23.406Z,4.27
2018-02-11T23:17:51.774Z,4.13
2018-02-11T23:20:20.264Z,4.17
2018-02-11T23:22:48.588Z,3.00
2018-02-11T23:25:16.943Z,3.60
2018-02-11T23:27:45.344Z,3.10
2018-02-11T23:30:13.943Z,4.20
2018-02-11T23:32:42.295Z,3.50
2018-02-11T23:35:10.680Z,2.93
2018-02-11T23:37:39.009Z,2.57
2018-02-11T23:40:07.334Z,3.10
2018-02-11T23:42:36.047Z,3.33
2018-02-11T23:45:04.394Z,3.30
2018-02-11T23:47:32.725Z,4.10
2018-02-11T23:50:01.483Z,2.80
2018-02-11T23:52:30.243Z,3.27
2018-02-11T23:54:58.619Z,3.13
2018-02-11T23:57:26.989Z,3.70
2018-02-11T23:59:55.341Z,3.17
